Taza Mas — WCY7704 — position and weather

sailwx.info

Track history (hours):
 
Tides and Currents Weather Stations Pressure Air Temp Water Temp Dewpoint Dewpoint Depression Visibility Wind Speed Wind Dir Waves Ship Positions

Taza Mas

Owner: TAZA MAS INC, FORT WORTH, TX. More information available from US FCC via Universal Licensing System and Coast Guard Vessel Documentation Center.

Last reported at 2015-Apr-28 03:33 UTC. Time now 2015-Apr-28 03:45 UTC.
Position N 18°23' W 064°42'.

Length 560 m; draft 16.1 m.

Type: Dredging. MMSI: 338046997.

Date/timePositionNaut miles runAvg speedWind from/ knotsBaromVisibWave heightAir tempDewpointWater temp
2015-Apr-28 03:33N 18°23' W 064°42'0 0.0
2015-Apr-28 02:32N 18°23' W 064°42'0 0.0
2015-Apr-28 01:29N 18°23' W 064°42'0 0.0
2015-Apr-28 00:31N 18°23' W 064°42'0 0.0
2015-Apr-27 23:30N 18°23' W 064°42'0 0.0
2015-Apr-27 22:29N 18°23' W 064°42'0 0.0
2015-Apr-27 21:20N 18°23' W 064°42'0 0.0
2015-Apr-27 20:32N 18°23' W 064°42'0 0.0
2015-Apr-27 19:31N 18°23' W 064°42'0 0.0
2015-Apr-27 18:15N 18°23' W 064°42'0 0.0
2015-Apr-27 17:14N 18°23' W 064°42'0 0.0
2015-Apr-27 16:24N 18°23' W 064°42'0 0.2
2015-Apr-27 15:21N 18°23' W 064°43'4 0.6
2015-Apr-27 09:16N 18°26' W 064°40'0 0.0
2015-Apr-27 08:33N 18°26' W 064°40'0 0.0
2015-Apr-27 07:29N 18°26' W 064°40'0 0.0
2015-Apr-27 06:33N 18°26' W 064°40'0 0.0
2015-Apr-27 05:28N 18°26' W 064°40'0 0.0
2015-Apr-27 04:14N 18°26' W 064°40'0 0.0
2015-Apr-27 03:24N 18°26' W 064°40'0 0.0
2015-Apr-27 02:19N 18°26' W 064°40'0 0.0
2015-Apr-27 00:31N 18°26' W 064°40'0 0.0
2015-Apr-26 23:32N 18°26' W 064°40'0 0.0
2015-Apr-26 22:07N 18°26' W 064°40'0 0.0
2015-Apr-26 21:13N 18°26' W 064°40'0 0.0
2015-Apr-26 17:06N 18°26' W 064°40'2 0.9
2015-Apr-26 14:30N 18°26' W 064°42'3 3.3
2015-Apr-26 13:33N 18°26' W 064°45'0 0.0
2015-Apr-26 12:31N 18°26' W 064°45'0 0.0
2015-Apr-26 11:33N 18°26' W 064°45'0 0.0
2015-Apr-26 10:29N 18°26' W 064°45'0 0.0
2015-Apr-26 09:32N 18°26' W 064°45'0 0.0
2015-Apr-26 08:33N 18°26' W 064°45'0 0.0
2015-Apr-26 07:33N 18°26' W 064°45'0 0.0
2015-Apr-26 06:30N 18°26' W 064°45'0 0.0
2015-Apr-26 05:30N 18°26' W 064°45'0 0.0
2015-Apr-26 04:32N 18°26' W 064°45'0 0.0
2015-Apr-26 03:33N 18°26' W 064°45'0 0.0
2015-Apr-26 02:33N 18°26' W 064°45'0 0.0
2015-Apr-26 01:32N 18°26' W 064°45'0 0.0
2015-Apr-26 00:32N 18°26' W 064°45'0 0.0
2015-Apr-25 23:31N 18°26' W 064°45'0 0.0
2015-Apr-25 22:21N 18°26' W 064°45'0 0.0
2015-Apr-25 21:32N 18°26' W 064°45'0 0.0
2015-Apr-25 20:23N 18°26' W 064°45'0 0.0
2015-Apr-25 19:23N 18°26' W 064°45'0 0.0
2015-Apr-25 18:33N 18°26' W 064°45'  
2015-Apr-23 13:32N 18°23' W 064°35'0 0.0
2015-Apr-22 14:33N 18°23' W 064°35'4 0.2
2015-Apr-21 17:33N 18°22' W 064°39'4 4.0
2015-Apr-21 16:32N 18°23' W 064°43'10 8.4
2015-Apr-21 15:20N 18°18' W 064°52'  
Track history (hours):
 
Tides and Currents Weather Stations Pressure Air Temp Water Temp Dewpoint Dewpoint Depression Visibility Wind Speed Wind Dir Waves Ship Positions

Taza Mas

Owner: TAZA MAS INC, FORT WORTH, TX. More information available from US FCC via Universal Licensing System and Coast Guard Vessel Documentation Center.

Last reported at 2015-Apr-28 03:33 UTC. Time now 2015-Apr-28 03:45 UTC.
Position N 18°23' W 064°42'.

Length 560 m; draft 16.1 m.

Type: Dredging. MMSI: 338046997.

Date/timePositionNaut miles runAvg speedWind from/ knotsBaromVisibWave heightAir tempDewpointWater temp
2015-Apr-28 03:33N 18°23' W 064°42'0 0.0
2015-Apr-28 02:32N 18°23' W 064°42'0 0.0
2015-Apr-28 01:29N 18°23' W 064°42'0 0.0
2015-Apr-28 00:31N 18°23' W 064°42'0 0.0
2015-Apr-27 23:30N 18°23' W 064°42'0 0.0
2015-Apr-27 22:29N 18°23' W 064°42'0 0.0
2015-Apr-27 21:20N 18°23' W 064°42'0 0.0
2015-Apr-27 20:32N 18°23' W 064°42'0 0.0
2015-Apr-27 19:31N 18°23' W 064°42'0 0.0
2015-Apr-27 18:15N 18°23' W 064°42'0 0.0
2015-Apr-27 17:14N 18°23' W 064°42'0 0.0
2015-Apr-27 16:24N 18°23' W 064°42'0 0.2
2015-Apr-27 15:21N 18°23' W 064°43'4 0.6
2015-Apr-27 09:16N 18°26' W 064°40'0 0.0
2015-Apr-27 08:33N 18°26' W 064°40'0 0.0
2015-Apr-27 07:29N 18°26' W 064°40'0 0.0
2015-Apr-27 06:33N 18°26' W 064°40'0 0.0
2015-Apr-27 05:28N 18°26' W 064°40'0 0.0
2015-Apr-27 04:14N 18°26' W 064°40'0 0.0
2015-Apr-27 03:24N 18°26' W 064°40'0 0.0
2015-Apr-27 02:19N 18°26' W 064°40'0 0.0
2015-Apr-27 00:31N 18°26' W 064°40'0 0.0
2015-Apr-26 23:32N 18°26' W 064°40'0 0.0
2015-Apr-26 22:07N 18°26' W 064°40'0 0.0
2015-Apr-26 21:13N 18°26' W 064°40'0 0.0
2015-Apr-26 17:06N 18°26' W 064°40'2 0.9
2015-Apr-26 14:30N 18°26' W 064°42'3 3.3
2015-Apr-26 13:33N 18°26' W 064°45'0 0.0
2015-Apr-26 12:31N 18°26' W 064°45'0 0.0
2015-Apr-26 11:33N 18°26' W 064°45'0 0.0
2015-Apr-26 10:29N 18°26' W 064°45'0 0.0
2015-Apr-26 09:32N 18°26' W 064°45'0 0.0
2015-Apr-26 08:33N 18°26' W 064°45'0 0.0
2015-Apr-26 07:33N 18°26' W 064°45'0 0.0
2015-Apr-26 06:30N 18°26' W 064°45'0 0.0
2015-Apr-26 05:30N 18°26' W 064°45'0 0.0
2015-Apr-26 04:32N 18°26' W 064°45'0 0.0
2015-Apr-26 03:33N 18°26' W 064°45'0 0.0
2015-Apr-26 02:33N 18°26' W 064°45'0 0.0
2015-Apr-26 01:32N 18°26' W 064°45'0 0.0
2015-Apr-26 00:32N 18°26' W 064°45'0 0.0
2015-Apr-25 23:31N 18°26' W 064°45'0 0.0
2015-Apr-25 22:21N 18°26' W 064°45'0 0.0
2015-Apr-25 21:32N 18°26' W 064°45'0 0.0
2015-Apr-25 20:23N 18°26' W 064°45'0 0.0
2015-Apr-25 19:23N 18°26' W 064°45'0 0.0
2015-Apr-25 18:33N 18°26' W 064°45'  
2015-Apr-23 13:32N 18°23' W 064°35'0 0.0
2015-Apr-22 14:33N 18°23' W 064°35'4 0.2
2015-Apr-21 17:33N 18°22' W 064°39'4 4.0
2015-Apr-21 16:32N 18°23' W 064°43'10 8.4
2015-Apr-21 15:20N 18°18' W 064°52'  

Dump ship's entire track history